sensor_id;sensor_type;location;lat;lon;timestamp;P1;durP1;ratioP1;P2;durP2;ratioP2
70385;SDS011;63206;55.650;37.500;2022-10-01T00:00:50;35.47;;;14.52;;
70385;SDS011;63206;55.650;37.500;2022-10-01T00:03:24;37.20;;;14.20;;
70385;SDS011;63206;55.650;37.500;2022-10-01T00:06:14;35.70;;;13.98;;
70385;SDS011;63206;55.650;37.500;2022-10-01T00:08:48;38.22;;;14.55;;
70385;SDS011;63206;55.650;37.500;2022-10-01T00:11:21;33.70;;;13.60;;
70385;SDS011;63206;55.650;37.500;2022-10-01T00:13:53;33.70;;;13.98;;
70385;SDS011;63206;55.650;37.500;2022-10-01T00:16:20;35.85;;;14.20;;
70385;SDS011;63206;55.650;37.500;2022-10-01T00:18:54;31.02;;;12.70;;
70385;SDS011;63206;55.650;37.500;2022-10-01T00:21:28;34.50;;;14.02;;
70385;SDS011;63206;55.650;37.500;2022-10-01T00:24:01;33.55;;;13.85;;
70385;SDS011;63206;55.650;37.500;2022-10-01T00:26:28;33.83;;;13.27;;
70385;SDS011;63206;55.650;37.500;2022-10-01T00:29:04;38.60;;;14.57;;
70385;SDS011;63206;55.650;37.500;2022-10-01T00:31:31;37.92;;;14.10;;
70385;SDS011;63206;55.650;37.500;2022-10-01T00:34:00;36.88;;;13.70;;
70385;SDS011;63206;55.650;37.500;2022-10-01T00:36:30;44.80;;;14.25;;
70385;SDS011;63206;55.650;37.500;2022-10-01T00:38:59;42.38;;;15.20;;
70385;SDS011;63206;55.650;37.500;2022-10-01T00:41:30;39.22;;;14.68;;
70385;SDS011;63206;55.650;37.500;2022-10-01T00:44:00;46.13;;;16.85;;
70385;SDS011;63206;55.650;37.500;2022-10-01T00:48:59;43.38;;;16.55;;
70385;SDS011;63206;55.650;37.500;2022-10-01T00:51:33;45.30;;;17.10;;
70385;SDS011;63206;55.650;37.500;2022-10-01T00:54:05;46.35;;;16.75;;
70385;SDS011;63206;55.650;37.500;2022-10-01T00:56:38;49.85;;;17.98;;
70385;SDS011;63206;55.650;37.500;2022-10-01T00:59:11;48.92;;;17.10;;
70385;SDS011;63206;55.650;37.500;2022-10-01T01:01:41;45.97;;;17.33;;
70385;SDS011;63206;55.650;37.500;2022-10-01T01:04:06;51.33;;;18.15;;
70385;SDS011;63206;55.650;37.500;2022-10-01T01:09:15;55.53;;;18.88;;
70385;SDS011;63206;55.650;37.500;2022-10-01T01:11:52;50.45;;;17.73;;
70385;SDS011;63206;55.650;37.500;2022-10-01T01:14:29;48.42;;;18.45;;
70385;SDS011;63206;55.650;37.500;2022-10-01T01:17:05;49.42;;;19.48;;
70385;SDS011;63206;55.650;37.500;2022-10-01T01:22:26;49.42;;;18.13;;
70385;SDS011;63206;55.650;37.500;2022-10-01T01:25:08;49.35;;;18.60;;
70385;SDS011;63206;55.650;37.500;2022-10-01T01:30:21;47.75;;;18.48;;
70385;SDS011;63206;55.650;37.500;2022-10-01T01:35:23;40.33;;;16.40;;
70385;SDS011;63206;55.650;37.500;2022-10-01T01:37:55;40.47;;;15.93;;
70385;SDS011;63206;55.650;37.500;2022-10-01T01:40:21;38.35;;;17.52;;
70385;SDS011;63206;55.650;37.500;2022-10-01T01:42:51;38.67;;;16.05;;
70385;SDS011;63206;55.650;37.500;2022-10-01T01:45:22;38.95;;;16.67;;
70385;SDS011;63206;55.650;37.500;2022-10-01T01:47:52;34.92;;;15.65;;
70385;SDS011;63206;55.650;37.500;2022-10-01T01:50:26;35.88;;;15.32;;
70385;SDS011;63206;55.650;37.500;2022-10-01T01:52:59;36.30;;;14.93;;
70385;SDS011;63206;55.650;37.500;2022-10-01T01:55:34;37.15;;;14.98;;
70385;SDS011;63206;55.650;37.500;2022-10-01T01:58:01;34.40;;;14.02;;
70385;SDS011;63206;55.650;37.500;2022-10-01T02:00:27;34.95;;;15.20;;
70385;SDS011;63206;55.650;37.500;2022-10-01T02:02:57;34.05;;;14.13;;
70385;SDS011;63206;55.650;37.500;2022-10-01T02:05:31;35.60;;;14.05;;
70385;SDS011;63206;55.650;37.500;2022-10-01T02:13:06;35.78;;;14.88;;
70385;SDS011;63206;55.650;37.500;2022-10-01T02:16:00;31.83;;;13.27;;
70385;SDS011;63206;55.650;37.500;2022-10-01T02:18:33;29.42;;;12.40;;
70385;SDS011;63206;55.650;37.500;2022-10-01T02:23:34;28.27;;;12.27;;
70385;SDS011;63206;55.650;37.500;2022-10-01T02:26:20;28.60;;;12.30;;
70385;SDS011;63206;55.650;37.500;2022-10-01T02:28:48;31.20;;;12.25;;
70385;SDS011;63206;55.650;37.500;2022-10-01T02:31:15;25.05;;;11.32;;
70385;SDS011;63206;55.650;37.500;2022-10-01T02:33:47;25.98;;;11.25;;
70385;SDS011;63206;55.650;37.500;2022-10-01T02:36:18;25.08;;;11.98;;
70385;SDS011;63206;55.650;37.500;2022-10-01T02:41:16;21.80;;;9.85;;
70385;SDS011;63206;55.650;37.500;2022-10-01T02:43:48;23.92;;;10.98;;
70385;SDS011;63206;55.650;37.500;2022-10-01T02:49:02;32.53;;;13.35;;
70385;SDS011;63206;55.650;37.500;2022-10-01T02:54:17;32.20;;;13.50;;
70385;SDS011;63206;55.650;37.500;2022-10-01T02:56:46;36.15;;;13.27;;
70385;SDS011;63206;55.650;37.500;2022-10-01T02:59:31;41.58;;;15.18;;
70385;SDS011;63206;55.650;37.500;2022-10-01T03:02:02;33.92;;;14.25;;
70385;SDS011;63206;55.650;37.500;2022-10-01T03:04:31;37.25;;;13.80;;
70385;SDS011;63206;55.650;37.500;2022-10-01T03:07:00;39.03;;;14.93;;
70385;SDS011;63206;55.650;37.500;2022-10-01T03:09:31;43.78;;;16.05;;
70385;SDS011;63206;55.650;37.500;2022-10-01T03:12:03;44.03;;;15.55;;
70385;SDS011;63206;55.650;37.500;2022-10-01T03:14:33;43.45;;;14.55;;
70385;SDS011;63206;55.650;37.500;2022-10-01T03:17:05;43.00;;;15.38;;
70385;SDS011;63206;55.650;37.500;2022-10-01T03:19:31;39.65;;;15.20;;
70385;SDS011;63206;55.650;37.500;2022-10-01T03:22:00;42.58;;;15.63;;
70385;SDS011;63206;55.650;37.500;2022-10-01T03:24:26;37.55;;;14.50;;
70385;SDS011;63206;55.650;37.500;2022-10-01T03:26:58;47.90;;;14.85;;
70385;SDS011;63206;55.650;37.500;2022-10-01T03:29:27;45.10;;;14.70;;
70385;SDS011;63206;55.650;37.500;2022-10-01T03:31:55;48.17;;;14.80;;
70385;SDS011;63206;55.650;37.500;2022-10-01T03:34:24;44.65;;;15.45;;
70385;SDS011;63206;55.650;37.500;2022-10-01T03:36:53;45.72;;;15.65;;
70385;SDS011;63206;55.650;37.500;2022-10-01T03:39:21;37.05;;;13.82;;
70385;SDS011;63206;55.650;37.500;2022-10-01T03:41:53;42.88;;;14.30;;
70385;SDS011;63206;55.650;37.500;2022-10-01T03:44:24;42.15;;;13.90;;
70385;SDS011;63206;55.650;37.500;2022-10-01T03:49:19;37.95;;;13.38;;
70385;SDS011;63206;55.650;37.500;2022-10-01T03:51:48;39.75;;;13.70;;
70385;SDS011;63206;55.650;37.500;2022-10-01T03:54:13;34.65;;;13.27;;
70385;SDS011;63206;55.650;37.500;2022-10-01T03:56:51;32.45;;;11.98;;
70385;SDS011;63206;55.650;37.500;2022-10-01T03:59:23;35.03;;;12.30;;
70385;SDS011;63206;55.650;37.500;2022-10-01T04:01:49;31.23;;;11.55;;
70385;SDS011;63206;55.650;37.500;2022-10-01T04:04:18;34.22;;;12.05;;
70385;SDS011;63206;55.650;37.500;2022-10-01T04:06:47;35.22;;;12.27;;
70385;SDS011;63206;55.650;37.500;2022-10-01T04:09:13;35.95;;;12.50;;
70385;SDS011;63206;55.650;37.500;2022-10-01T04:11:39;30.05;;;11.30;;
70385;SDS011;63206;55.650;37.500;2022-10-01T04:14:08;38.15;;;12.68;;
70385;SDS011;63206;55.650;37.500;2022-10-01T04:16:34;31.48;;;11.20;;
70385;SDS011;63206;55.650;37.500;2022-10-01T04:19:01;29.58;;;12.45;;
70385;SDS011;63206;55.650;37.500;2022-10-01T04:21:27;34.35;;;13.23;;
70385;SDS011;63206;55.650;37.500;2022-10-01T04:23:56;39.85;;;12.73;;
70385;SDS011;63206;55.650;37.500;2022-10-01T04:26:31;37.55;;;13.95;;
70385;SDS011;63206;55.650;37.500;2022-10-01T04:28:57;40.67;;;13.85;;
70385;SDS011;63206;55.650;37.500;2022-10-01T04:31:23;39.42;;;13.02;;
70385;SDS011;63206;55.650;37.500;2022-10-01T04:33:55;39.35;;;13.93;;
70385;SDS011;63206;55.650;37.500;2022-10-01T04:36:27;42.53;;;15.07;;
70385;SDS011;63206;55.650;37.500;2022-10-01T04:38:53;43.88;;;14.70;;
70385;SDS011;63206;55.650;37.500;2022-10-01T04:41:22;42.00;;;14.43;;
70385;SDS011;63206;55.650;37.500;2022-10-01T04:43:48;47.67;;;14.05;;
70385;SDS011;63206;55.650;37.500;2022-10-01T04:46:14;45.28;;;15.25;;
70385;SDS011;63206;55.650;37.500;2022-10-01T04:48:43;46.60;;;14.65;;
70385;SDS011;63206;55.650;37.500;2022-10-01T04:51:12;42.00;;;13.85;;
70385;SDS011;63206;55.650;37.500;2022-10-01T04:53:38;44.22;;;14.90;;
70385;SDS011;63206;55.650;37.500;2022-10-01T04:56:04;36.67;;;13.23;;
70385;SDS011;63206;55.650;37.500;2022-10-01T04:58:30;38.80;;;13.40;;
70385;SDS011;63206;55.650;37.500;2022-10-01T05:01:04;31.02;;;12.23;;
70385;SDS011;63206;55.650;37.500;2022-10-01T05:03:33;33.33;;;12.70;;
70385;SDS011;63206;55.650;37.500;2022-10-01T05:06:04;28.33;;;11.02;;
70385;SDS011;63206;55.650;37.500;2022-10-01T05:08:36;27.15;;;10.73;;
70385;SDS011;63206;55.650;37.500;2022-10-01T05:11:06;25.48;;;10.93;;
70385;SDS011;63206;55.650;37.500;2022-10-01T05:13:35;27.95;;;11.27;;
70385;SDS011;63206;55.650;37.500;2022-10-01T05:16:03;32.72;;;11.48;;
70385;SDS011;63206;55.650;37.500;2022-10-01T05:18:35;33.60;;;12.45;;
70385;SDS011;63206;55.650;37.500;2022-10-01T05:21:04;43.42;;;14.52;;
70385;SDS011;63206;55.650;37.500;2022-10-01T05:23:36;41.58;;;14.07;;
70385;SDS011;63206;55.650;37.500;2022-10-01T05:26:06;47.53;;;12.80;;
70385;SDS011;63206;55.650;37.500;2022-10-01T05:28:35;53.70;;;15.48;;
70385;SDS011;63206;55.650;37.500;2022-10-01T05:31:06;48.00;;;15.10;;
70385;SDS011;63206;55.650;37.500;2022-10-01T05:33:35;54.85;;;16.10;;
70385;SDS011;63206;55.650;37.500;2022-10-01T05:36:05;56.63;;;15.00;;
70385;SDS011;63206;55.650;37.500;2022-10-01T05:38:34;48.22;;;14.52;;
70385;SDS011;63206;55.650;37.500;2022-10-01T05:41:05;73.13;;;16.20;;
70385;SDS011;63206;55.650;37.500;2022-10-01T05:43:31;53.63;;;14.55;;
70385;SDS011;63206;55.650;37.500;2022-10-01T05:46:02;54.42;;;15.63;;
70385;SDS011;63206;55.650;37.500;2022-10-01T05:48:39;58.33;;;14.95;;
70385;SDS011;63206;55.650;37.500;2022-10-01T05:51:10;50.83;;;15.02;;
70385;SDS011;63206;55.650;37.500;2022-10-01T05:53:44;52.28;;;16.08;;
70385;SDS011;63206;55.650;37.500;2022-10-01T05:56:16;50.70;;;14.20;;
70385;SDS011;63206;55.650;37.500;2022-10-01T05:58:48;49.92;;;15.98;;
70385;SDS011;63206;55.650;37.500;2022-10-01T06:01:19;52.00;;;14.38;;
70385;SDS011;63206;55.650;37.500;2022-10-01T06:03:50;59.92;;;15.80;;
70385;SDS011;63206;55.650;37.500;2022-10-01T06:06:23;44.97;;;14.98;;
70385;SDS011;63206;55.650;37.500;2022-10-01T06:08:50;48.50;;;15.77;;
70385;SDS011;63206;55.650;37.500;2022-10-01T06:11:16;51.05;;;15.68;;
70385;SDS011;63206;55.650;37.500;2022-10-01T06:13:49;45.63;;;14.20;;
70385;SDS011;63206;55.650;37.500;2022-10-01T06:16:18;38.47;;;13.52;;
70385;SDS011;63206;55.650;37.500;2022-10-01T06:18:51;43.38;;;14.02;;
70385;SDS011;63206;55.650;37.500;2022-10-01T06:21:25;41.75;;;14.85;;
70385;SDS011;63206;55.650;37.500;2022-10-01T06:23:54;42.80;;;16.15;;
70385;SDS011;63206;55.650;37.500;2022-10-01T06:26:20;38.58;;;14.48;;
70385;SDS011;63206;55.650;37.500;2022-10-01T06:28:49;41.88;;;16.13;;
70385;SDS011;63206;55.650;37.500;2022-10-01T06:31:21;40.05;;;14.85;;
70385;SDS011;63206;55.650;37.500;2022-10-01T06:33:47;39.38;;;14.30;;
70385;SDS011;63206;55.650;37.500;2022-10-01T06:36:16;36.92;;;14.35;;
70385;SDS011;63206;55.650;37.500;2022-10-01T06:38:42;39.08;;;14.52;;
70385;SDS011;63206;55.650;37.500;2022-10-01T06:41:13;43.75;;;15.60;;
70385;SDS011;63206;55.650;37.500;2022-10-01T06:43:42;36.40;;;13.93;;
70385;SDS011;63206;55.650;37.500;2022-10-01T06:46:08;41.25;;;15.48;;
70385;SDS011;63206;55.650;37.500;2022-10-01T06:48:39;38.40;;;15.73;;
70385;SDS011;63206;55.650;37.500;2022-10-01T06:51:08;40.30;;;15.48;;
70385;SDS011;63206;55.650;37.500;2022-10-01T06:53:37;39.05;;;14.88;;
70385;SDS011;63206;55.650;37.500;2022-10-01T06:56:06;37.60;;;14.25;;
70385;SDS011;63206;55.650;37.500;2022-10-01T06:58:37;36.88;;;14.40;;
70385;SDS011;63206;55.650;37.500;2022-10-01T07:01:06;37.25;;;15.07;;
70385;SDS011;63206;55.650;37.500;2022-10-01T07:03:35;38.13;;;15.00;;
70385;SDS011;63206;55.650;37.500;2022-10-01T07:06:02;40.58;;;15.18;;
70385;SDS011;63206;55.650;37.500;2022-10-01T07:08:31;42.25;;;16.25;;
70385;SDS011;63206;55.650;37.500;2022-10-01T07:11:01;36.65;;;14.55;;
70385;SDS011;63206;55.650;37.500;2022-10-01T07:13:35;38.13;;;16.38;;
70385;SDS011;63206;55.650;37.500;2022-10-01T07:16:04;40.38;;;15.60;;
70385;SDS011;63206;55.650;37.500;2022-10-01T07:18:33;38.08;;;16.08;;
70385;SDS011;63206;55.650;37.500;2022-10-01T07:20:59;34.95;;;15.18;;
70385;SDS011;63206;55.650;37.500;2022-10-01T07:23:27;45.25;;;16.08;;
70385;SDS011;63206;55.650;37.500;2022-10-01T07:25:56;44.90;;;16.48;;
70385;SDS011;63206;55.650;37.500;2022-10-01T07:28:27;37.55;;;16.52;;
70385;SDS011;63206;55.650;37.500;2022-10-01T07:30:57;42.60;;;16.58;;
70385;SDS011;63206;55.650;37.500;2022-10-01T07:33:27;38.28;;;15.90;;
70385;SDS011;63206;55.650;37.500;2022-10-01T07:35:58;40.13;;;16.00;;
70385;SDS011;63206;55.650;37.500;2022-10-01T07:38:27;45.67;;;16.70;;
70385;SDS011;63206;55.650;37.500;2022-10-01T07:40:53;41.03;;;14.73;;
70385;SDS011;63206;55.650;37.500;2022-10-01T07:43:26;40.10;;;16.02;;
70385;SDS011;63206;55.650;37.500;2022-10-01T07:45:52;40.58;;;15.70;;
70385;SDS011;63206;55.650;37.500;2022-10-01T07:48:25;42.60;;;17.02;;
70385;SDS011;63206;55.650;37.500;2022-10-01T07:50:55;40.55;;;16.17;;
70385;SDS011;63206;55.650;37.500;2022-10-01T07:53:22;42.10;;;16.65;;
70385;SDS011;63206;55.650;37.500;2022-10-01T07:55:51;39.75;;;15.93;;
70385;SDS011;63206;55.650;37.500;2022-10-01T07:58:17;40.20;;;15.75;;
70385;SDS011;63206;55.650;37.500;2022-10-01T08:00:52;39.30;;;15.60;;
70385;SDS011;63206;55.650;37.500;2022-10-01T08:03:25;42.72;;;16.65;;
70385;SDS011;63206;55.650;37.500;2022-10-01T08:05:57;41.58;;;16.05;;
70385;SDS011;63206;55.650;37.500;2022-10-01T08:08:24;39.33;;;15.70;;
70385;SDS011;63206;55.650;37.500;2022-10-01T08:10:52;43.58;;;16.90;;
70385;SDS011;63206;55.650;37.500;2022-10-01T08:13:21;40.42;;;15.63;;
70385;SDS011;63206;55.650;37.500;2022-10-01T08:15:52;40.33;;;17.00;;
70385;SDS011;63206;55.650;37.500;2022-10-01T08:18:19;41.50;;;15.77;;
70385;SDS011;63206;55.650;37.500;2022-10-01T08:20:45;42.50;;;17.08;;
70385;SDS011;63206;55.650;37.500;2022-10-01T08:23:12;43.33;;;16.85;;
70385;SDS011;63206;55.650;37.500;2022-10-01T08:25:44;46.20;;;17.40;;
70385;SDS011;63206;55.650;37.500;2022-10-01T08:28:17;43.80;;;16.48;;
70385;SDS011;63206;55.650;37.500;2022-10-01T08:30:44;39.22;;;16.83;;
70385;SDS011;63206;55.650;37.500;2022-10-01T08:33:10;43.08;;;17.25;;
70385;SDS011;63206;55.650;37.500;2022-10-01T08:35:39;42.20;;;17.15;;
70385;SDS011;63206;55.650;37.500;2022-10-01T08:38:06;41.78;;;16.77;;
70385;SDS011;63206;55.650;37.500;2022-10-01T08:40:33;38.03;;;15.70;;
70385;SDS011;63206;55.650;37.500;2022-10-01T08:43:03;42.85;;;17.10;;
70385;SDS011;63206;55.650;37.500;2022-10-01T08:48:00;37.97;;;16.73;;
70385;SDS011;63206;55.650;37.500;2022-10-01T08:53:03;40.75;;;18.05;;
70385;SDS011;63206;55.650;37.500;2022-10-01T08:55:30;37.60;;;16.42;;
70385;SDS011;63206;55.650;37.500;2022-10-01T08:58:04;41.10;;;17.52;;
70385;SDS011;63206;55.650;37.500;2022-10-01T09:00:38;45.65;;;18.40;;
70385;SDS011;63206;55.650;37.500;2022-10-01T09:03:10;40.45;;;16.80;;
70385;SDS011;63206;55.650;37.500;2022-10-01T09:08:35;39.45;;;15.57;;
70385;SDS011;63206;55.650;37.500;2022-10-01T09:16:34;37.92;;;16.50;;
70385;SDS011;63206;55.650;37.500;2022-10-01T09:21:56;39.90;;;17.42;;
70385;SDS011;63206;55.650;37.500;2022-10-01T09:24:44;38.47;;;16.45;;
70385;SDS011;63206;55.650;37.500;2022-10-01T09:27:15;39.60;;;16.90;;
70385;SDS011;63206;55.650;37.500;2022-10-01T09:29:52;44.08;;;16.83;;
70385;SDS011;63206;55.650;37.500;2022-10-01T09:32:32;40.85;;;17.63;;
70385;SDS011;63206;55.650;37.500;2022-10-01T09:35:02;45.95;;;17.90;;
70385;SDS011;63206;55.650;37.500;2022-10-01T09:40:18;44.08;;;18.30;;
70385;SDS011;63206;55.650;37.500;2022-10-01T09:42:49;47.97;;;19.15;;
70385;SDS011;63206;55.650;37.500;2022-10-01T09:45:21;49.28;;;19.75;;
70385;SDS011;63206;55.650;37.500;2022-10-01T09:47:52;50.95;;;19.85;;
70385;SDS011;63206;55.650;37.500;2022-10-01T09:50:40;52.22;;;20.63;;
70385;SDS011;63206;55.650;37.500;2022-10-01T09:53:15;54.05;;;21.52;;
70385;SDS011;63206;55.650;37.500;2022-10-01T09:55:48;54.85;;;20.40;;
70385;SDS011;63206;55.650;37.500;2022-10-01T09:58:19;51.97;;;20.30;;
70385;SDS011;63206;55.650;37.500;2022-10-01T10:00:53;60.13;;;22.20;;
70385;SDS011;63206;55.650;37.500;2022-10-01T10:05:51;55.88;;;21.83;;
70385;SDS011;63206;55.650;37.500;2022-10-01T10:08:33;55.30;;;22.50;;
70385;SDS011;63206;55.650;37.500;2022-10-01T10:11:07;54.03;;;22.55;;
70385;SDS011;63206;55.650;37.500;2022-10-01T10:13:38;55.97;;;23.25;;
70385;SDS011;63206;55.650;37.500;2022-10-01T10:16:14;50.60;;;21.73;;
70385;SDS011;63206;55.650;37.500;2022-10-01T10:18:45;51.10;;;20.80;;
70385;SDS011;63206;55.650;37.500;2022-10-01T10:21:14;51.55;;;20.65;;
70385;SDS011;63206;55.650;37.500;2022-10-01T10:26:32;44.85;;;19.23;;
70385;SDS011;63206;55.650;37.500;2022-10-01T10:29:01;43.28;;;17.55;;
70385;SDS011;63206;55.650;37.500;2022-10-01T10:31:36;40.83;;;17.83;;
70385;SDS011;63206;55.650;37.500;2022-10-01T10:36:41;35.83;;;15.50;;
70385;SDS011;63206;55.650;37.500;2022-10-01T10:39:21;38.75;;;15.63;;
70385;SDS011;63206;55.650;37.500;2022-10-01T10:41:53;37.00;;;15.80;;
70385;SDS011;63206;55.650;37.500;2022-10-01T10:44:27;33.38;;;13.98;;
70385;SDS011;63206;55.650;37.500;2022-10-01T10:46:59;34.50;;;15.18;;
70385;SDS011;63206;55.650;37.500;2022-10-01T10:49:42;26.30;;;11.82;;
70385;SDS011;63206;55.650;37.500;2022-10-01T10:54:51;27.05;;;11.35;;
70385;SDS011;63206;55.650;37.500;2022-10-01T10:57:25;26.35;;;11.80;;
70385;SDS011;63206;55.650;37.500;2022-10-01T11:02:30;24.48;;;11.43;;
70385;SDS011;63206;55.650;37.500;2022-10-01T11:05:01;34.03;;;13.05;;
70385;SDS011;63206;55.650;37.500;2022-10-01T11:07:31;31.02;;;13.77;;
70385;SDS011;63206;55.650;37.500;2022-10-01T11:10:14;32.55;;;14.70;;
70385;SDS011;63206;55.650;37.500;2022-10-01T11:20:44;32.25;;;14.30;;
70385;SDS011;63206;55.650;37.500;2022-10-01T11:23:28;32.55;;;14.18;;
70385;SDS011;63206;55.650;37.500;2022-10-01T11:26:08;31.70;;;13.85;;
70385;SDS011;63206;55.650;37.500;2022-10-01T11:28:42;35.28;;;13.95;;
70385;SDS011;63206;55.650;37.500;2022-10-01T11:36:28;31.65;;;15.02;;
70385;SDS011;63206;55.650;37.500;2022-10-01T11:39:14;32.38;;;15.07;;
70385;SDS011;63206;55.650;37.500;2022-10-01T11:41:44;29.35;;;13.73;;
70385;SDS011;63206;55.650;37.500;2022-10-01T11:46:51;31.80;;;14.10;;
70385;SDS011;63206;55.650;37.500;2022-10-01T11:49:33;30.85;;;13.50;;
70385;SDS011;63206;55.650;37.500;2022-10-01T11:52:03;29.58;;;13.15;;
70385;SDS011;63206;55.650;37.500;2022-10-01T11:54:31;30.33;;;13.63;;
70385;SDS011;63206;55.650;37.500;2022-10-01T11:56:59;30.48;;;14.23;;
70385;SDS011;63206;55.650;37.500;2022-10-01T11:59:53;29.58;;;13.32;;
70385;SDS011;63206;55.650;37.500;2022-10-01T12:02:24;29.05;;;12.77;;
70385;SDS011;63206;55.650;37.500;2022-10-01T12:05:09;28.55;;;13.65;;
70385;SDS011;63206;55.650;37.500;2022-10-01T12:12:53;27.00;;;12.25;;
70385;SDS011;63206;55.650;37.500;2022-10-01T12:20:16;25.42;;;12.02;;
70385;SDS011;63206;55.650;37.500;2022-10-01T12:22:44;25.25;;;11.65;;
70385;SDS011;63206;55.650;37.500;2022-10-01T12:25:13;24.17;;;11.73;;
70385;SDS011;63206;55.650;37.500;2022-10-01T12:30:19;19.65;;;9.30;;
70385;SDS011;63206;55.650;37.500;2022-10-01T12:32:55;21.58;;;10.02;;
70385;SDS011;63206;55.650;37.500;2022-10-01T12:48:47;14.43;;;6.95;;
70385;SDS011;63206;55.650;37.500;2022-10-01T12:51:39;13.40;;;6.72;;
70385;SDS011;63206;55.650;37.500;2022-10-01T12:59:50;15.00;;;7.00;;
70385;SDS011;63206;55.650;37.500;2022-10-01T13:13:27;12.35;;;5.97;;
70385;SDS011;63206;55.650;37.500;2022-10-01T13:24:02;16.80;;;7.00;;
70385;SDS011;63206;55.650;37.500;2022-10-01T13:29:06;16.23;;;7.28;;
70385;SDS011;63206;55.650;37.500;2022-10-01T13:31:58;14.60;;;7.22;;
70385;SDS011;63206;55.650;37.500;2022-10-01T13:34:24;15.82;;;7.13;;
70385;SDS011;63206;55.650;37.500;2022-10-01T13:36:52;16.65;;;7.18;;
70385;SDS011;63206;55.650;37.500;2022-10-01T13:39:24;15.45;;;7.40;;
70385;SDS011;63206;55.650;37.500;2022-10-01T13:41:57;15.90;;;7.10;;
70385;SDS011;63206;55.650;37.500;2022-10-01T13:44:24;17.13;;;7.35;;
70385;SDS011;63206;55.650;37.500;2022-10-01T13:46:58;16.00;;;7.22;;
70385;SDS011;63206;55.650;37.500;2022-10-01T13:49:26;16.75;;;7.78;;
70385;SDS011;63206;55.650;37.500;2022-10-01T13:51:53;15.73;;;7.25;;
70385;SDS011;63206;55.650;37.500;2022-10-01T13:56:53;19.15;;;8.05;;
70385;SDS011;63206;55.650;37.500;2022-10-01T14:01:50;15.57;;;7.00;;
70385;SDS011;63206;55.650;37.500;2022-10-01T14:04:40;17.55;;;8.07;;
70385;SDS011;63206;55.650;37.500;2022-10-01T14:09:34;16.00;;;7.60;;
70385;SDS011;63206;55.650;37.500;2022-10-01T14:12:02;15.40;;;7.35;;
70385;SDS011;63206;55.650;37.500;2022-10-01T14:14:50;16.15;;;7.38;;
70385;SDS011;63206;55.650;37.500;2022-10-01T14:17:36;17.02;;;7.65;;
70385;SDS011;63206;55.650;37.500;2022-10-01T14:20:08;13.82;;;6.60;;
70385;SDS011;63206;55.650;37.500;2022-10-01T14:25:50;14.50;;;6.90;;
70385;SDS011;63206;55.650;37.500;2022-10-01T14:41:35;16.33;;;7.68;;
70385;SDS011;63206;55.650;37.500;2022-10-01T14:44:13;14.38;;;7.18;;
70385;SDS011;63206;55.650;37.500;2022-10-01T14:46:43;19.00;;;8.20;;
70385;SDS011;63206;55.650;37.500;2022-10-01T14:49:23;19.33;;;7.78;;
70385;SDS011;63206;55.650;37.500;2022-10-01T14:51:51;17.38;;;7.20;;
70385;SDS011;63206;55.650;37.500;2022-10-01T14:54:18;16.02;;;7.53;;
70385;SDS011;63206;55.650;37.500;2022-10-01T14:56:44;14.68;;;7.20;;
70385;SDS011;63206;55.650;37.500;2022-10-01T14:59:15;17.23;;;7.32;;
70385;SDS011;63206;55.650;37.500;2022-10-01T15:01:52;17.55;;;8.02;;
70385;SDS011;63206;55.650;37.500;2022-10-01T15:04:18;16.70;;;7.97;;
70385;SDS011;63206;55.650;37.500;2022-10-01T15:06:45;17.92;;;8.82;;
70385;SDS011;63206;55.650;37.500;2022-10-01T15:09:12;16.92;;;7.95;;
70385;SDS011;63206;55.650;37.500;2022-10-01T15:11:39;18.52;;;8.07;;
70385;SDS011;63206;55.650;37.500;2022-10-01T15:14:07;16.50;;;7.75;;
70385;SDS011;63206;55.650;37.500;2022-10-01T15:16:35;18.33;;;8.35;;
70385;SDS011;63206;55.650;37.500;2022-10-01T15:19:04;18.30;;;8.35;;
70385;SDS011;63206;55.650;37.500;2022-10-01T15:21:38;17.40;;;8.25;;
70385;SDS011;63206;55.650;37.500;2022-10-01T15:24:05;18.20;;;8.90;;
70385;SDS011;63206;55.650;37.500;2022-10-01T15:26:32;18.35;;;7.75;;
70385;SDS011;63206;55.650;37.500;2022-10-01T15:29:32;14.85;;;7.90;;
70385;SDS011;63206;55.650;37.500;2022-10-01T15:31:51;20.25;;;8.80;;
70385;SDS011;63206;55.650;37.500;2022-10-01T15:34:21;19.67;;;8.65;;
70385;SDS011;63206;55.650;37.500;2022-10-01T15:36:47;17.73;;;8.63;;
70385;SDS011;63206;55.650;37.500;2022-10-01T15:39:22;17.33;;;9.00;;
70385;SDS011;63206;55.650;37.500;2022-10-01T15:41:49;24.38;;;10.80;;
70385;SDS011;63206;55.650;37.500;2022-10-01T15:49:59;20.75;;;9.60;;
70385;SDS011;63206;55.650;37.500;2022-10-01T15:52:26;20.77;;;10.15;;
70385;SDS011;63206;55.650;37.500;2022-10-01T15:55:12;20.65;;;8.85;;
70385;SDS011;63206;55.650;37.500;2022-10-01T15:57:40;20.73;;;9.18;;
70385;SDS011;63206;55.650;37.500;2022-10-01T16:00:15;20.65;;;8.98;;
70385;SDS011;63206;55.650;37.500;2022-10-01T16:02:44;18.63;;;9.13;;
70385;SDS011;63206;55.650;37.500;2022-10-01T16:05:24;17.67;;;7.80;;
70385;SDS011;63206;55.650;37.500;2022-10-01T16:07:52;19.23;;;8.13;;
70385;SDS011;63206;55.650;37.500;2022-10-01T16:10:34;18.08;;;8.20;;
70385;SDS011;63206;55.650;37.500;2022-10-01T16:13:47;19.50;;;9.40;;
70385;SDS011;63206;55.650;37.500;2022-10-01T16:16:34;17.70;;;8.32;;
70385;SDS011;63206;55.650;37.500;2022-10-01T16:18:40;14.70;;;7.40;;
70385;SDS011;63206;55.650;37.500;2022-10-01T16:21:07;16.17;;;7.80;;
70385;SDS011;63206;55.650;37.500;2022-10-01T16:23:44;16.55;;;7.63;;
70385;SDS011;63206;55.650;37.500;2022-10-01T16:26:29;18.63;;;8.45;;
70385;SDS011;63206;55.650;37.500;2022-10-01T16:31:34;17.13;;;7.93;;
70385;SDS011;63206;55.650;37.500;2022-10-01T16:34:01;16.55;;;8.18;;
70385;SDS011;63206;55.650;37.500;2022-10-01T16:36:30;19.80;;;9.30;;
70385;SDS011;63206;55.650;37.500;2022-10-01T16:38:56;20.10;;;8.77;;
70385;SDS011;63206;55.650;37.500;2022-10-01T16:41:23;17.88;;;8.57;;
70385;SDS011;63206;55.650;37.500;2022-10-01T16:43:51;18.85;;;9.07;;
70385;SDS011;63206;55.650;37.500;2022-10-01T16:46:17;19.15;;;9.00;;
70385;SDS011;63206;55.650;37.500;2022-10-01T16:48:46;18.42;;;9.45;;
70385;SDS011;63206;55.650;37.500;2022-10-01T16:51:13;19.13;;;9.52;;
70385;SDS011;63206;55.650;37.500;2022-10-01T16:53:39;20.80;;;9.93;;
70385;SDS011;63206;55.650;37.500;2022-10-01T16:56:07;19.25;;;9.30;;
70385;SDS011;63206;55.650;37.500;2022-10-01T16:58:33;20.95;;;9.27;;
70385;SDS011;63206;55.650;37.500;2022-10-01T17:01:05;18.05;;;9.23;;
70385;SDS011;63206;55.650;37.500;2022-10-01T17:06:07;21.30;;;9.55;;
70385;SDS011;63206;55.650;37.500;2022-10-01T17:08:33;21.23;;;9.70;;
70385;SDS011;63206;55.650;37.500;2022-10-01T17:11:02;19.88;;;9.68;;
70385;SDS011;63206;55.650;37.500;2022-10-01T17:13:29;21.95;;;9.40;;
70385;SDS011;63206;55.650;37.500;2022-10-01T17:15:55;18.90;;;9.52;;
70385;SDS011;63206;55.650;37.500;2022-10-01T17:18:22;20.45;;;9.52;;
70385;SDS011;63206;55.650;37.500;2022-10-01T17:20:53;17.20;;;8.88;;